• Join FlightAware (Why Join?)
  • Login
  • US Flag 
12:26AM EDT


 

Airport Tracker/Info


-or-


 

Live Flight TrackerFlight Track Log ✈ C-GYPG ✈ 04-May-2013 ✈ CYAV - CYAV

Flight Track Log - Related Links

Times and Time Zones

All times are in EDT time to prevent confusion due to time zone crossing. See the C-GYPG flight status page for this flight to view local times or setup timezone preferences in your user account.

Time Position Orientation Groundspeed Altitude Reporting Facility
EDT Latitude Longitude Course Direction KTS MPH feet Rate Location/Type
10:40AM 50.0667 -97.0167 228° Southwest 80 92 1,500  Level Winnipeg Center
10:41AM 50.0833 -97.0167 360° North 80 92 2,100 600 Climbing Winnipeg Center
10:42AM 50.1000 -97.0167 360° North 80 92 2,700 480 Climbing Winnipeg Center
10:43AM 50.1333 -97.0167 360° North 80 92 3,100 240 Climbing Winnipeg Center
10:44AM 50.1167 -97.0000 147° Southeast 110 127 3,300 360 Climbing Winnipeg Center
10:45AM 50.0564 -97.0325 228° Southwest  Level Estimated
10:45AM 50.0833 -97.0167 198° South 110 127 3,900  Level Winnipeg Center
10:46AM 50.0500 -97.0500 213° Southwest 130 150 4,000  Climbing Winnipeg Center
10:47AM 50.0167 -97.0667 198° South 130 150 4,000  Level Winnipeg Center
10:48AM 49.9833 -97.1000 213° Southwest 130 150 4,000  Level Winnipeg Center
10:49AM 49.9500 -97.1000 180° South 130 150 4,000  Level Winnipeg Center
10:50AM 49.9167 -97.1167 198° South 130 150 4,000  Level Winnipeg Center
10:51AM 49.8833 -97.1500 213° Southwest 130 150 4,000  Level Winnipeg Center
10:52AM 49.8500 -97.1500 180° South 130 150 4,000  Level Winnipeg Center
10:53AM 49.8000 -97.1500 180° South 130 150 4,000  Level Winnipeg Center
10:54AM 49.7667 -97.1500 180° South 130 150 4,000  Level Winnipeg Center
10:55AM 49.7333 -97.1500 180° South 130 150 4,000 -300 Level Winnipeg Center
10:56AM 49.7167 -97.1667 213° Southwest 130 150 3,500 -540 Descending Winnipeg Center
10:57AM 49.7167 -97.2167 270° West 120 138 3,000 -300 Descending Winnipeg Center
10:58AM 49.7333 -97.2833 291° West 100 115 2,900  Descending Winnipeg Center
10:59AM 49.7667 -97.2500 33° Northeast 90 104 3,000  Climbing Winnipeg Center
11:00AM 49.7833 -97.2500 360° North 100 115 2,900 -420 Descending Winnipeg Center
11:01AM 49.8167 -97.2500 360° North 110 127 2,200 -600 Descending Winnipeg Center
11:03AM 49.8833 -97.2333 North 110 127 1,100 -180 Descending Winnipeg Center
11:04AM 49.9000 -97.2333 360° North 100 115 1,700 600 Climbing Winnipeg Center
11:05AM 49.9000 -97.2000 90° East 90 104 2,400 360 Climbing Winnipeg Center
11:06AM 49.9000 -97.1500 90° East 110 127 2,500 300 Climbing Winnipeg Center
11:07AM 49.9000 -97.1000 90° East 90 104 3,000 240 Climbing Winnipeg Center
11:08AM 49.8667 -97.1000 180° South 120 138 3,000  Level Winnipeg Center
11:09AM 49.8333 -97.0667 147° Southeast 120 138 3,100  Climbing Winnipeg Center
11:10AM 49.8167 -97.1167 243° Southwest 120 138 3,000 -120 Descending Winnipeg Center
11:11AM 49.8000 -97.1500 232° Southwest 130 150 2,900  Descending Winnipeg Center
11:12AM 49.7833 -97.1167 128° Southeast 110 127 3,000 60 Climbing Winnipeg Center
11:13AM 49.7667 -97.1000 147° Southeast 100 115 3,100  Climbing Winnipeg Center
11:14AM 49.7667 -97.0500 90° East 100 115 3,100 -120 Level Winnipeg Center
11:15AM 49.7333 -97.0167 147° Southeast 110 127 2,900 -240 Descending Winnipeg Center
11:16AM 49.7500 -97.0500 308° West 100 115 2,700  Descending Winnipeg Center
11:17AM 49.7833 -97.0667 342° North 110 127 3,000 120 Climbing Winnipeg Center
11:18AM 49.8000 -97.1000 308° West 110 127 3,000 -300 Level Winnipeg Center
11:19AM 49.8167 -97.1500 297° West 110 127 2,500 -540 Descending Winnipeg Center
11:20AM 49.8500 -97.1667 342° North 110 127 2,000 -600 Descending Winnipeg Center
11:21AM 49.8667 -97.2000 308° West 110 127 1,300 -120 Descending Winnipeg Center
11:22AM 49.8833 -97.2000 360° North 100 115 1,800 540 Climbing Winnipeg Center
11:23AM 49.9000 -97.1667 52° Northeast 90 104 2,400 540 Climbing Winnipeg Center
11:24AM 49.9333 -97.1500 18° North 90 104 2,900 300 Climbing Winnipeg Center
11:25AM 49.9333 -97.1167 90° East 110 127 3,000  Climbing Winnipeg Center
11:27AM 49.9333 -97.0167 90° East 110 127 3,000  Level Winnipeg Center
11:30AM 49.9333 -96.8833 90° East 110 127 3,100  Climbing Winnipeg Center
11:31AM 49.9500 -96.8667 33° Northeast 140 161 3,000 -300 Descending Winnipeg Center
11:32AM 49.9667 -96.8833 327° Northwest 120 138 2,600 -600 Descending Winnipeg Center
11:33AM 50.0000 -96.9333 316° Northwest 120 138 1,900 -660 Descending Winnipeg Center
11:34AM 50.0167 -96.9667 308° West 120 138 1,300 -420 Descending Winnipeg Center
11:35AM 50.0333 -97.0000 308° West 90 104 1,100 -300 Descending Winnipeg Center
11:36AM 50.0500 -97.0167 327° Northwest 70 81 800 -300 Descending Winnipeg Center